createdAt,value
2022-08-08T00:02:15.346Z,52.33
2022-08-08T00:04:49.297Z,51.93
2022-08-08T00:07:23.395Z,52.23
2022-08-08T00:10:02.604Z,52.13
2022-08-08T00:12:32.962Z,51.80
2022-08-08T00:15:13.079Z,51.46
2022-08-08T00:18:02.971Z,52.07
2022-08-08T00:20:37.536Z,50.74
2022-08-08T00:23:08.308Z,51.56
2022-08-08T00:25:46.367Z,52.01
2022-08-08T00:28:35.638Z,51.94
2022-08-08T00:32:20.908Z,51.33
2022-08-08T00:34:31.035Z,51.69
2022-08-08T00:37:45.162Z,52.83
2022-08-08T00:41:12.289Z,52.12
2022-08-08T00:43:19.658Z,52.07
2022-08-08T00:45:58.673Z,51.86
2022-08-08T00:49:00.818Z,52.24
2022-08-08T00:52:19.639Z,51.74
2022-08-08T00:55:08.945Z,52.58
2022-08-08T00:58:17.911Z,52.68
2022-08-08T01:00:55.764Z,52.57
2022-08-08T01:04:04.659Z,51.92
2022-08-08T01:07:08.747Z,52.25
2022-08-08T01:10:31.801Z,52.23
2022-08-08T01:13:23.019Z,52.33
2022-08-08T01:16:38.490Z,53.24
2022-08-08T01:20:03.254Z,52.90
2022-08-08T01:24:05.255Z,52.51
2022-08-08T01:26:36.617Z,52.52
2022-08-08T01:29:35.463Z,52.83
2022-08-08T01:32:44.848Z,52.94
2022-08-08T01:36:03.117Z,53.18
2022-08-08T01:38:54.818Z,52.70
2022-08-08T01:41:34.421Z,53.41
2022-08-08T01:44:27.184Z,52.90
2022-08-08T01:48:13.962Z,53.28
2022-08-08T01:50:05.391Z,53.29
2022-08-08T01:54:05.482Z,54.14
2022-08-08T01:56:29.877Z,53.43
2022-08-08T01:58:46.997Z,53.12
2022-08-08T02:02:00.514Z,53.22
2022-08-08T02:04:38.011Z,54.11
2022-08-08T02:07:20.143Z,53.55
2022-08-08T02:10:11.755Z,53.48
2022-08-08T02:12:52.416Z,53.91
2022-08-08T02:15:34.929Z,53.85
2022-08-08T02:18:11.697Z,54.42
2022-08-08T02:21:13.214Z,54.04
2022-08-08T02:23:45.716Z,53.82
2022-08-08T02:26:18.241Z,54.29
2022-08-08T02:29:01.437Z,54.11
2022-08-08T02:31:58.080Z,53.95
2022-08-08T02:35:07.766Z,54.14
2022-08-08T02:37:53.076Z,54.19
2022-08-08T02:40:34.535Z,54.18
2022-08-08T02:44:42.989Z,55.06
2022-08-08T02:46:47.764Z,55.34
2022-08-08T02:49:51.819Z,54.69
2022-08-08T02:52:43.577Z,55.25
2022-08-08T02:56:01.681Z,54.52
2022-08-08T02:59:37.314Z,54.70
2022-08-08T03:02:50.472Z,55.16
2022-08-08T03:05:46.206Z,55.06
2022-08-08T03:09:03.066Z,55.40
2022-08-08T03:12:14.051Z,55.22
2022-08-08T03:16:01.150Z,55.77
2022-08-08T03:17:59.871Z,55.71
2022-08-08T03:20:51.596Z,55.54
2022-08-08T03:23:56.341Z,55.10
2022-08-08T03:26:27.138Z,55.17
2022-08-08T03:29:03.559Z,55.45
2022-08-08T03:32:05.993Z,55.58
2022-08-08T03:34:37.703Z,55.62
2022-08-08T03:37:59.675Z,55.93
2022-08-08T03:40:03.594Z,55.20
2022-08-08T03:42:33.827Z,55.84
2022-08-08T03:46:06.927Z,55.04
2022-08-08T03:47:59.862Z,56.18
2022-08-08T03:50:30.387Z,55.37
2022-08-08T03:53:03.853Z,55.44
2022-08-08T03:55:55.937Z,54.87
2022-08-08T03:58:35.588Z,55.88
2022-08-08T04:01:24.479Z,55.68
2022-08-08T04:03:59.688Z,56.03
2022-08-08T04:06:36.021Z,56.85
2022-08-08T04:09:11.347Z,55.88
2022-08-08T04:11:58.296Z,55.09
2022-08-08T04:14:36.453Z,54.58
2022-08-08T04:17:22.453Z,55.93
2022-08-08T04:19:57.316Z,55.99
2022-08-08T04:22:29.754Z,56.53
2022-08-08T04:24:59.135Z,55.56
2022-08-08T04:28:02.507Z,54.98
2022-08-08T04:30:19.607Z,55.25
2022-08-08T04:32:52.031Z,54.98
2022-08-08T04:35:27.073Z,54.32
2022-08-08T04:37:58.025Z,54.29
2022-08-08T04:40:39.529Z,54.97
2022-08-08T04:43:22.180Z,54.49
2022-08-08T04:45:54.795Z,54.13
2022-08-08T04:48:24.564Z,54.07
2022-08-08T04:50:54.807Z,54.03
2022-08-08T04:54:37.137Z,53.76
2022-08-08T04:56:17.984Z,53.00
2022-08-08T04:58:48.410Z,53.20
2022-08-08T05:01:20.121Z,53.21
2022-08-08T05:04:09.416Z,53.81
2022-08-08T05:06:43.105Z,53.90
2022-08-08T05:09:13.059Z,53.42
2022-08-08T05:11:47.740Z,53.44
2022-08-08T05:14:29.360Z,53.29
2022-08-08T05:17:02.151Z,53.14
2022-08-08T05:20:12.405Z,52.86
2022-08-08T05:22:31.493Z,52.49
2022-08-08T05:25:00.487Z,52.78
2022-08-08T05:27:32.993Z,52.90
2022-08-08T05:30:04.914Z,52.93
2022-08-08T05:32:44.318Z,51.84
2022-08-08T05:35:16.132Z,52.18
2022-08-08T05:37:54.015Z,52.29
2022-08-08T05:40:59.836Z,51.48
2022-08-08T05:44:02.158Z,51.72
2022-08-08T05:46:26.338Z,51.34
2022-08-08T05:48:56.305Z,51.04
2022-08-08T05:51:37.510Z,50.90
2022-08-08T05:54:27.387Z,51.05
2022-08-08T05:57:08.853Z,50.35
2022-08-08T05:59:59.910Z,50.26
2022-08-08T06:03:05.221Z,50.20
2022-08-08T06:05:45.367Z,50.28
2022-08-08T06:08:32.929Z,50.34
2022-08-08T06:11:08.505Z,50.38
2022-08-08T06:13:47.271Z,50.73
2022-08-08T06:16:25.085Z,50.44
2022-08-08T06:19:24.129Z,50.30
2022-08-08T06:21:57.403Z,49.24
2022-08-08T06:24:40.618Z,49.34
2022-08-08T06:27:24.966Z,48.71
2022-08-08T06:30:00.987Z,48.64
2022-08-08T06:32:42.650Z,47.92
2022-08-08T06:36:06.155Z,48.52
2022-08-08T06:38:09.340Z,48.39
2022-08-08T06:40:54.441Z,47.84
2022-08-08T06:43:34.322Z,47.73
2022-08-08T06:46:33.888Z,47.38
2022-08-08T06:49:17.813Z,47.35
2022-08-08T06:51:57.726Z,47.83
2022-08-08T06:54:34.241Z,47.39
2022-08-08T06:57:08.650Z,48.02
2022-08-08T07:00:10.689Z,48.06
2022-08-08T07:02:52.177Z,46.69
2022-08-08T07:05:41.768Z,47.23
2022-08-08T07:08:20.032Z,47.19
2022-08-08T07:11:00.381Z,46.95
2022-08-08T07:14:00.854Z,46.76
2022-08-08T07:16:54.742Z,47.05
2022-08-08T07:19:33.349Z,46.53
2022-08-08T07:22:11.639Z,46.98
2022-08-08T07:24:46.547Z,48.36
2022-08-08T07:27:17.462Z,47.91
2022-08-08T07:30:02.586Z,48.00
2022-08-08T07:32:42.518Z,48.66
2022-08-08T07:35:15.184Z,48.53
2022-08-08T07:38:05.036Z,49.25
2022-08-08T07:40:48.448Z,48.52
2022-08-08T07:43:32.398Z,54.28
2022-08-08T07:46:23.630Z,59.53
2022-08-08T07:49:00.118Z,60.23
2022-08-08T07:51:44.797Z,60.93
2022-08-08T07:54:29.683Z,63.21
2022-08-08T07:57:17.006Z,62.99
2022-08-08T07:59:52.426Z,63.70
2022-08-08T08:02:35.042Z,63.93
2022-08-08T08:05:15.176Z,65.69
2022-08-08T08:07:45.894Z,66.17
2022-08-08T08:10:18.197Z,67.16
2022-08-08T08:13:25.844Z,64.92
2022-08-08T08:16:17.382Z,64.26
2022-08-08T08:18:55.994Z,64.44
2022-08-08T08:21:44.730Z,66.00
2022-08-08T08:24:30.678Z,64.13
2022-08-08T08:27:02.787Z,63.74
2022-08-08T08:29:33.262Z,64.28
2022-08-08T08:32:05.688Z,64.84
2022-08-08T08:34:36.938Z,64.53
2022-08-08T08:37:15.536Z,64.22
2022-08-08T08:40:01.775Z,63.94
2022-08-08T08:42:36.841Z,64.01
2022-08-08T08:45:22.760Z,64.18
2022-08-08T08:47:58.699Z,63.09
2022-08-08T08:50:35.270Z,64.70
2022-08-08T08:53:27.899Z,64.66
2022-08-08T08:56:12.826Z,63.04
2022-08-08T08:58:46.907Z,64.54
2022-08-08T09:01:33.015Z,62.84
2022-08-08T09:04:03.097Z,63.49
2022-08-08T09:06:40.494Z,61.94
2022-08-08T09:09:35.161Z,61.86
2022-08-08T09:12:13.481Z,62.22
2022-08-08T09:14:45.208Z,62.22
2022-08-08T09:17:23.661Z,61.83
2022-08-08T09:21:58.544Z,62.10
2022-08-08T09:22:51.621Z,62.62
2022-08-08T09:25:47.484Z,61.83
2022-08-08T09:28:35.368Z,63.04
2022-08-08T09:31:12.820Z,63.36
2022-08-08T09:34:30.189Z,64.36
2022-08-08T09:36:36.203Z,61.71
2022-08-08T09:39:10.330Z,63.30
2022-08-08T09:42:14.966Z,65.48
2022-08-08T09:44:44.158Z,65.42
2022-08-08T09:48:04.669Z,66.25
2022-08-08T09:50:11.812Z,67.52
2022-08-08T09:53:12.475Z,68.07
2022-08-08T09:56:04.260Z,67.97
2022-08-08T09:58:28.353Z,66.67
2022-08-08T10:01:58.254Z,65.25
2022-08-08T10:04:10.365Z,65.90
2022-08-08T10:06:45.200Z,65.35
2022-08-08T10:09:30.952Z,66.14
2022-08-08T10:12:27.632Z,64.28
2022-08-08T10:15:01.842Z,65.27
2022-08-08T10:18:05.600Z,65.48
2022-08-08T10:20:51.305Z,63.90
2022-08-08T10:23:44.242Z,65.67
2022-08-08T10:26:30.744Z,66.98
2022-08-08T10:29:04.604Z,66.49
2022-08-08T10:31:53.028Z,68.99
2022-08-08T10:34:27.313Z,70.06
2022-08-08T10:36:59.816Z,69.98
2022-08-08T10:39:43.692Z,71.46
2022-08-08T10:42:20.805Z,73.13
2022-08-08T10:44:50.333Z,72.50
2022-08-08T10:47:21.179Z,71.58
2022-08-08T10:50:01.899Z,72.96
2022-08-08T10:52:32.491Z,74.37
2022-08-08T10:55:06.559Z,77.34
2022-08-08T10:57:45.279Z,78.59
2022-08-08T11:00:25.683Z,79.25
2022-08-08T11:02:54.659Z,82.02
2022-08-08T11:05:23.771Z,82.77
2022-08-08T11:08:31.678Z,83.12
2022-08-08T11:10:44.102Z,83.92
2022-08-08T11:13:29.075Z,84.16
2022-08-08T11:16:07.416Z,85.60
2022-08-08T11:18:37.353Z,83.66
2022-08-08T11:21:10.016Z,83.84
2022-08-08T11:23:43.066Z,84.33
2022-08-08T11:26:18.768Z,84.51
2022-08-08T11:28:50.206Z,84.66
2022-08-08T11:31:18.801Z,85.62
2022-08-08T11:34:03.134Z,85.48
2022-08-08T11:36:32.941Z,86.50
2022-08-08T11:39:06.109Z,85.80
2022-08-08T11:41:45.210Z,86.84
2022-08-08T11:44:15.765Z,85.71
2022-08-08T11:46:44.532Z,85.70
2022-08-08T11:49:14.003Z,85.97
2022-08-08T11:51:49.551Z,86.18
2022-08-08T11:54:32.421Z,85.52
2022-08-08T11:57:17.010Z,85.53
2022-08-08T12:00:01.827Z,85.43
2022-08-08T12:02:51.211Z,86.59
2022-08-08T12:05:22.883Z,85.35
2022-08-08T12:07:56.001Z,85.01
2022-08-08T12:10:27.112Z,84.95
2022-08-08T12:13:04.093Z,84.68
2022-08-08T12:15:42.136Z,83.34
2022-08-08T12:18:18.168Z,81.87
2022-08-08T12:20:53.163Z,80.42
2022-08-08T12:23:43.346Z,83.84
2022-08-08T12:26:27.196Z,83.59
2022-08-08T12:29:25.895Z,80.89
2022-08-08T12:32:13.443Z,81.88
2022-08-08T12:34:57.518Z,81.03
2022-08-08T12:37:41.173Z,81.11
2022-08-08T12:40:22.371Z,80.35
2022-08-08T12:42:51.322Z,79.72
2022-08-08T12:45:58.875Z,79.25
2022-08-08T12:48:36.871Z,79.08
2022-08-08T12:51:07.833Z,79.02
2022-08-08T12:53:47.982Z,78.49
2022-08-08T12:56:24.247Z,79.65
2022-08-08T12:58:55.299Z,79.42
2022-08-08T13:01:37.668Z,78.00
2022-08-08T13:04:25.814Z,78.46
2022-08-08T13:07:00.927Z,79.31
2022-08-08T13:09:57.601Z,80.19
2022-08-08T13:12:29.227Z,79.35
2022-08-08T13:14:59.773Z,78.94
2022-08-08T13:18:10.059Z,78.42
2022-08-08T13:20:22.180Z,80.25
2022-08-08T13:22:55.946Z,79.11
2022-08-08T13:25:36.630Z,80.41
2022-08-08T13:28:05.104Z,79.32
2022-08-08T13:30:33.506Z,78.03
2022-08-08T13:33:04.038Z,77.02
2022-08-08T13:35:39.073Z,76.88
2022-08-08T13:38:13.224Z,76.12
2022-08-08T13:40:44.923Z,76.65
2022-08-08T13:43:15.889Z,78.05
2022-08-08T13:45:47.606Z,76.86
2022-08-08T13:48:25.085Z,75.63
2022-08-08T13:50:57.838Z,76.81
2022-08-08T13:53:59.871Z,76.61
2022-08-08T13:56:31.011Z,75.02
2022-08-08T13:58:59.265Z,75.90
2022-08-08T14:01:41.821Z,76.15
2022-08-08T14:04:24.951Z,77.50
2022-08-08T14:06:59.588Z,77.36
2022-08-08T14:10:05.227Z,77.36
2022-08-08T14:12:28.011Z,77.02
2022-08-08T14:14:56.814Z,77.67
2022-08-08T14:17:58.489Z,77.53
2022-08-08T14:20:55.363Z,76.53
2022-08-08T14:23:10.333Z,76.62
2022-08-08T14:25:54.171Z,75.55
2022-08-08T14:28:29.046Z,74.66
2022-08-08T14:31:09.224Z,73.77
2022-08-08T14:33:39.164Z,73.75
2022-08-08T14:36:13.354Z,74.04
2022-08-08T14:38:52.742Z,72.22
2022-08-08T14:41:53.884Z,72.09
2022-08-08T14:44:13.233Z,72.00
2022-08-08T14:47:01.057Z,71.31
2022-08-08T14:49:37.771Z,72.04
2022-08-08T14:52:24.985Z,71.10
2022-08-08T14:54:53.244Z,70.30
2022-08-08T14:58:00.673Z,70.53
2022-08-08T15:00:10.973Z,70.89
2022-08-08T15:02:58.596Z,71.23
2022-08-08T15:05:43.150Z,71.00
2022-08-08T15:08:35.318Z,70.63
2022-08-08T15:11:09.498Z,71.21
2022-08-08T15:14:00.765Z,70.14
2022-08-08T15:16:34.595Z,72.34
2022-08-08T15:19:05.728Z,72.32
2022-08-08T15:21:42.450Z,72.08
2022-08-08T15:24:14.463Z,71.12
2022-08-08T15:26:52.629Z,71.27
2022-08-08T15:29:24.513Z,71.68
2022-08-08T15:32:03.835Z,71.98
2022-08-08T15:34:42.279Z,71.03
2022-08-08T15:37:10.540Z,70.13
2022-08-08T15:39:42.759Z,69.85
2022-08-08T15:42:17.670Z,69.95
2022-08-08T15:44:52.588Z,69.46
2022-08-08T15:47:22.600Z,69.45
2022-08-08T15:49:53.126Z,68.86
2022-08-08T15:52:23.450Z,68.11
2022-08-08T15:54:54.848Z,68.63
2022-08-08T15:57:23.600Z,68.63
2022-08-08T16:00:05.426Z,68.41
2022-08-08T16:02:44.203Z,67.73
2022-08-08T16:05:19.941Z,66.71
2022-08-08T16:07:52.335Z,67.08
2022-08-08T16:13:15.663Z,67.25
2022-08-08T16:13:33.576Z,66.12
2022-08-08T16:16:09.512Z,66.17
2022-08-08T16:18:53.318Z,66.31
2022-08-08T16:21:27.616Z,66.24
2022-08-08T16:23:56.498Z,65.19
2022-08-08T16:26:35.280Z,65.16
2022-08-08T16:29:07.863Z,65.11
2022-08-08T16:31:48.592Z,63.98
2022-08-08T16:34:19.059Z,62.17
2022-08-08T16:36:51.029Z,60.33
2022-08-08T16:39:59.423Z,59.20
2022-08-08T16:42:18.397Z,58.24
2022-08-08T16:44:54.765Z,58.96
2022-08-08T16:47:40.728Z,58.52
2022-08-08T16:50:15.290Z,56.80
2022-08-08T16:55:04.480Z,59.37
2022-08-08T16:55:53.154Z,59.13
2022-08-08T16:58:32.488Z,59.66
2022-08-08T17:01:05.612Z,59.02
2022-08-08T17:04:01.017Z,57.19
2022-08-08T17:06:36.911Z,56.18
2022-08-08T17:09:06.406Z,56.87
2022-08-08T17:11:48.280Z,59.25
2022-08-08T17:14:27.592Z,60.14
2022-08-08T17:17:03.749Z,60.47
2022-08-08T17:19:41.078Z,59.62
2022-08-08T17:22:11.074Z,58.75
2022-08-08T17:24:40.816Z,58.95
2022-08-08T17:27:10.366Z,60.17
2022-08-08T17:29:43.871Z,59.89
2022-08-08T17:32:28.830Z,60.31
2022-08-08T17:35:54.057Z,59.91
2022-08-08T17:37:53.192Z,61.44
2022-08-08T17:40:22.324Z,62.00
2022-08-08T17:42:55.209Z,62.61
2022-08-08T17:45:25.122Z,62.25
2022-08-08T17:47:57.617Z,62.44
2022-08-08T17:50:28.355Z,62.04
2022-08-08T17:52:57.589Z,63.21
2022-08-08T17:56:06.930Z,63.29
2022-08-08T17:58:18.257Z,63.06
2022-08-08T18:00:56.188Z,62.79
2022-08-08T18:03:27.756Z,62.24
2022-08-08T18:05:58.884Z,62.66
2022-08-08T18:08:41.042Z,63.08
2022-08-08T18:11:14.735Z,63.50
2022-08-08T18:13:46.075Z,63.28
2022-08-08T18:16:23.042Z,62.79
2022-08-08T18:18:57.385Z,63.54
2022-08-08T18:21:58.981Z,63.54
2022-08-08T18:24:19.340Z,63.23
2022-08-08T18:26:55.001Z,62.94
2022-08-08T18:29:30.065Z,62.97
2022-08-08T18:32:05.237Z,62.68
2022-08-08T18:34:34.207Z,62.44
2022-08-08T18:37:06.559Z,61.95
2022-08-08T18:39:38.550Z,61.43
2022-08-08T18:42:14.294Z,61.02
2022-08-08T18:44:54.898Z,60.13
2022-08-08T18:47:27.045Z,60.74
2022-08-08T18:49:58.900Z,60.63
2022-08-08T18:52:30.342Z,60.43
2022-08-08T18:55:10.933Z,59.46
2022-08-08T18:57:45.031Z,59.69
2022-08-08T19:00:19.534Z,59.58
2022-08-08T19:02:55.378Z,58.91
2022-08-08T19:05:32.143Z,58.81
2022-08-08T19:08:25.114Z,58.63
2022-08-08T19:10:59.308Z,58.09
2022-08-08T19:13:53.097Z,59.02
2022-08-08T19:16:19.480Z,58.33
2022-08-08T19:19:00.392Z,58.35
2022-08-08T19:21:33.858Z,58.39
2022-08-08T19:24:48.842Z,58.76
2022-08-08T19:27:14.818Z,57.00
2022-08-08T19:29:45.834Z,57.71
2022-08-08T19:32:19.516Z,57.16
2022-08-08T19:34:52.833Z,57.50
2022-08-08T19:37:43.936Z,55.76
2022-08-08T19:40:16.227Z,57.07
2022-08-08T19:42:47.704Z,56.67
2022-08-08T19:45:57.675Z,56.63
2022-08-08T19:48:05.559Z,56.39
2022-08-08T19:50:37.700Z,56.33
2022-08-08T19:53:46.959Z,56.68
2022-08-08T19:55:54.721Z,56.19
2022-08-08T19:58:24.188Z,55.62
2022-08-08T20:00:53.177Z,55.31
2022-08-08T20:04:01.625Z,55.85
2022-08-08T20:06:19.496Z,55.86
2022-08-08T20:08:48.991Z,55.89
2022-08-08T20:11:22.059Z,55.75
2022-08-08T20:14:32.729Z,55.16
2022-08-08T20:16:41.151Z,55.84
2022-08-08T20:19:10.947Z,55.47
2022-08-08T20:21:41.704Z,54.68
2022-08-08T20:24:12.443Z,54.69
2022-08-08T20:26:41.845Z,54.69
2022-08-08T20:29:20.761Z,54.00
2022-08-08T20:32:07.681Z,54.74
2022-08-08T20:34:47.977Z,54.32
2022-08-08T20:37:24.705Z,55.14
2022-08-08T20:40:16.769Z,54.89
2022-08-08T20:42:54.692Z,54.74
2022-08-08T20:45:55.057Z,54.74
2022-08-08T20:48:16.621Z,54.83
2022-08-08T20:50:49.587Z,55.35
2022-08-08T20:54:00.657Z,54.83
2022-08-08T20:56:13.991Z,55.22
2022-08-08T20:58:46.872Z,55.22
2022-08-08T21:01:19.501Z,55.37
2022-08-08T21:03:59.980Z,55.20
2022-08-08T21:06:52.954Z,54.84
2022-08-08T21:09:19.868Z,55.44
2022-08-08T21:11:51.553Z,55.96
2022-08-08T21:14:30.499Z,55.34
2022-08-08T21:17:05.948Z,55.93
2022-08-08T21:19:45.854Z,55.34
2022-08-08T21:22:15.463Z,55.46
2022-08-08T21:24:52.833Z,55.77
2022-08-08T21:28:05.263Z,56.62
2022-08-08T21:30:17.886Z,56.42
2022-08-08T21:32:51.572Z,56.99
2022-08-08T21:36:14.269Z,56.70
2022-08-08T21:38:17.151Z,57.09
2022-08-08T21:40:55.230Z,58.26
2022-08-08T21:43:31.095Z,58.45
2022-08-08T21:48:05.918Z,59.33
2022-08-08T21:48:52.702Z,60.38
2022-08-08T21:54:18.178Z,60.88
2022-08-08T21:54:35.368Z,61.00
2022-08-08T21:57:02.719Z,61.19
2022-08-08T22:00:02.039Z,61.21
2022-08-08T22:02:23.312Z,61.56
2022-08-08T22:04:56.115Z,61.57
2022-08-08T22:07:40.358Z,62.17
2022-08-08T22:10:18.382Z,63.00
2022-08-08T22:13:17.658Z,62.14
2022-08-08T22:15:59.089Z,62.12
2022-08-08T22:18:31.900Z,62.14
2022-08-08T22:21:14.202Z,62.01
2022-08-08T22:23:50.761Z,62.16
2022-08-08T22:26:30.035Z,62.29
2022-08-08T22:29:04.512Z,62.42
2022-08-08T22:31:43.982Z,63.15
2022-08-08T22:34:29.253Z,62.97
2022-08-08T22:36:57.418Z,62.75
2022-08-08T22:39:28.266Z,62.62
2022-08-08T22:42:10.243Z,63.34
2022-08-08T22:44:39.783Z,63.31
2022-08-08T22:47:17.590Z,63.38
2022-08-08T22:49:54.223Z,64.26
2022-08-08T22:52:33.314Z,64.30
2022-08-08T22:55:05.576Z,64.54
2022-08-08T22:57:44.432Z,64.67
2022-08-08T23:00:20.011Z,64.52
2022-08-08T23:02:50.248Z,64.23
2022-08-08T23:05:21.428Z,64.55
2022-08-08T23:07:56.947Z,64.06
2022-08-08T23:10:26.655Z,63.96
2022-08-08T23:12:55.278Z,64.20
2022-08-08T23:16:40.755Z,64.19
2022-08-08T23:18:13.893Z,64.17
2022-08-08T23:20:43.563Z,64.52
2022-08-08T23:23:12.611Z,64.49
2022-08-08T23:25:48.538Z,64.73
2022-08-08T23:28:18.874Z,64.50
2022-08-08T23:30:48.775Z,64.67
2022-08-08T23:33:20.899Z,64.47
2022-08-08T23:36:08.903Z,63.94
2022-08-08T23:38:44.207Z,64.00
2022-08-08T23:41:23.206Z,64.36
2022-08-08T23:43:56.875Z,64.03
2022-08-08T23:48:59.779Z,64.34
2022-08-08T23:49:18.876Z,63.96
2022-08-08T23:52:05.910Z,64.02
2022-08-08T23:54:43.352Z,64.62
2022-08-08T23:57:38.779Z,63.90
